Time;durP1;ratioP1;P1;durP2;ratioP2;P2;SDS_P1;SDS_P2;PMS_P1;PMS_P2;Temp;Humidity;BMP_temperature;BMP_pressure;BME280_temperature;BME280_humidity;BME280_pressure;Samples;Min_cycle;Max_cycle;Signal;HPM_P1;HPM_P2
2020/12/18 00:00:08;;;;;;;;;;;7.10;99.90;;;;;;4965803;28;19914;-81
2020/12/18 00:02:33;;;;;;;;;;;7.20;99.90;;;;;;4978427;28;19922;-80
2020/12/18 00:04:59;;;;;;;;;;;7.20;99.90;;;;;;4983856;28;20327;-81
2020/12/18 00:07:25;;;;;;;;;;;7.10;99.90;;;;;;4989803;28;19949;-81
2020/12/18 00:09:50;;;;;;;;;;;7.20;99.90;;;;;;4980948;28;19941;-81
2020/12/18 00:12:16;;;;;;;;;;;7.10;99.90;;;;;;4988198;28;19910;-82
2020/12/18 00:14:41;;;;;;;;;;;6.90;99.90;;;;;;4981930;28;20059;-81
2020/12/18 00:17:07;;;;;;;;;;;6.80;99.90;;;;;;4983947;28;19917;-81
2020/12/18 00:19:32;;;;;;;;;;;6.70;99.90;;;;;;4976970;28;19968;-81
2020/12/18 00:21:58;;;;;;;;;;;6.60;99.90;;;;;;4982828;28;19949;-81
2020/12/18 00:24:24;;;;;;;;;;;6.60;99.90;;;;;;4998994;28;20392;-81
2020/12/18 00:26:49;;;;;;;;;;;6.50;99.90;;;;;;4973478;28;19913;-80
2020/12/18 00:29:15;;;;;;;;;;;6.50;99.90;;;;;;4981229;28;19921;-81
2020/12/18 00:31:41;;;;;;;;;;;6.40;99.90;;;;;;4990009;28;19906;-80
2020/12/18 00:34:06;;;;;;;;;;;6.30;99.90;;;;;;4981214;28;20048;-81
2020/12/18 00:36:32;;;;;;;;;;;6.30;99.90;;;;;;4981632;28;19913;-81
2020/12/18 00:38:57;;;;;;;;;;;6.20;99.90;;;;;;4977274;28;19921;-81
2020/12/18 00:41:23;;;;;;;;;;;6.20;99.90;;;;;;4993052;28;19921;-80
2020/12/18 00:43:48;;;;;;;;;;;6.20;99.90;;;;;;5000317;28;20009;-81
2020/12/18 00:46:13;;;;;;;;;;;6.20;99.90;;;;;;4993903;28;19960;-81
2020/12/18 00:48:39;;;;;;;;;;;6.20;99.90;;;;;;4996370;28;19948;-81
2020/12/18 00:51:04;;;;;;;;;;;6.20;99.90;;;;;;4993498;28;19906;-80
2020/12/18 00:53:30;;;;;;;;;;;6.20;99.90;;;;;;4985024;28;20273;-80
2020/12/18 00:55:56;;;;;;;;;;;6.20;99.90;;;;;;4979521;28;20019;-80
2020/12/18 00:58:21;;;;;;;;;;;6.20;99.90;;;;;;4986466;28;19913;-80
2020/12/18 01:00:46;;;;;;;;;;;6.20;99.90;;;;;;5000504;28;19898;-80
2020/12/18 01:03:12;;;;;;;;;;;6.30;99.90;;;;;;5012189;28;20378;-80
2020/12/18 01:05:37;;;;;;;;;;;6.30;99.90;;;;;;4994656;28;20354;-80
2020/12/18 01:08:03;;;;;;;;;;;6.30;99.90;;;;;;4982410;28;19922;-80
2020/12/18 01:10:28;;;;;;;;;;;6.30;99.90;;;;;;4999024;28;19941;-81
2020/12/18 01:12:54;;;;;;;;;;;6.30;99.90;;;;;;4978096;28;19906;-80
2020/12/18 01:15:19;;;;;;;;;;;6.30;99.90;;;;;;4995706;28;19906;-80
2020/12/18 01:17:45;;;;;;;;;;;6.40;99.90;;;;;;4974782;28;19957;-80
2020/12/18 01:20:10;;;;;;;;;;;6.40;99.90;;;;;;4983834;28;20294;-80
2020/12/18 01:22:36;;;;;;;;;;;6.40;99.90;;;;;;4958593;28;20001;-80
2020/12/18 01:25:01;;;;;;;;;;;6.40;99.90;;;;;;4984204;28;19911;-80
2020/12/18 01:27:27;;;;;;;;;;;6.40;99.90;;;;;;4976258;28;19910;-80
2020/12/18 01:29:52;;;;;;;;;;;6.40;99.90;;;;;;4973585;28;19914;-80
2020/12/18 01:32:18;;;;;;;;;;;6.40;99.90;;;;;;4975233;28;19917;-80
2020/12/18 01:34:44;;;;;;;;;;;6.40;99.90;;;;;;4968920;28;19949;-80
2020/12/18 01:37:10;;;;;;;;;;;6.40;99.90;;;;;;4991978;28;19910;-80
2020/12/18 01:39:36;;;;;;;;;;;6.40;99.90;;;;;;4994066;28;20061;-80
2020/12/18 01:42:01;;;;;;;;;;;6.40;99.90;;;;;;4993112;28;19921;-80
2020/12/18 01:44:27;;;;;;;;;;;6.40;99.90;;;;;;4994403;28;20278;-80
2020/12/18 01:46:52;;;;;;;;;;;6.40;99.90;;;;;;4989741;28;20378;-80
2020/12/18 01:49:18;;;;;;;;;;;6.40;99.90;;;;;;4978823;28;19960;-80
2020/12/18 01:51:43;;;;;;;;;;;6.40;99.90;;;;;;4992386;28;19924;-81
2020/12/18 01:54:09;;;;;;;;;;;6.40;99.90;;;;;;4988759;28;19918;-79
2020/12/18 01:56:35;;;;;;;;;;;6.40;99.90;;;;;;4975343;28;19969;-80
2020/12/18 01:59:00;;;;;;;;;;;6.40;99.90;;;;;;4990726;28;19922;-80
2020/12/18 02:01:26;;;;;;;;;;;6.30;99.90;;;;;;4994121;28;19956;-80
2020/12/18 02:03:53;;;;;;;;;;;6.30;99.90;;;;;;4980743;28;19918;-80
2020/12/18 02:06:21;;;;;;;;;;;6.30;99.90;;;;;;4976691;28;19914;-80
2020/12/18 02:08:48;;;;;;;;;;;6.30;99.90;;;;;;4977737;28;19918;-80
2020/12/18 02:11:14;;;;;;;;;;;6.30;99.90;;;;;;4992458;28;19918;-80
2020/12/18 02:13:39;;;;;;;;;;;6.30;99.90;;;;;;4979840;28;20363;-80
2020/12/18 02:16:05;;;;;;;;;;;6.20;99.90;;;;;;4977645;28;19921;-80
2020/12/18 02:18:30;;;;;;;;;;;6.20;99.90;;;;;;4984759;28;20012;-80
2020/12/18 02:20:56;;;;;;;;;;;6.20;99.90;;;;;;4988606;28;19921;-80
2020/12/18 02:23:21;;;;;;;;;;;6.20;99.90;;;;;;4989579;28;19991;-81
2020/12/18 02:26:06;;;;;;;;;;;6.20;99.90;;;;;;4989823;28;19960;-80
2020/12/18 02:28:34;;;;;;;;;;;6.20;99.90;;;;;;4991740;28;19918;-81
2020/12/18 02:31:00;;;;;;;;;;;6.20;99.90;;;;;;4991365;28;19913;-80
2020/12/18 02:33:25;;;;;;;;;;;6.10;99.90;;;;;;4992935;28;19922;-79
2020/12/18 02:35:51;;;;;;;;;;;6.10;99.90;;;;;;4981319;28;19961;-80
2020/12/18 02:38:16;;;;;;;;;;;6.10;99.90;;;;;;4981195;28;19918;-80
2020/12/18 02:40:41;;;;;;;;;;;6.00;99.90;;;;;;4983223;28;19914;-80
2020/12/18 02:43:07;;;;;;;;;;;6.00;99.90;;;;;;4981378;28;19917;-80
2020/12/18 02:45:32;;;;;;;;;;;5.90;99.90;;;;;;4967093;28;20603;-80
2020/12/18 02:47:58;;;;;;;;;;;5.90;99.90;;;;;;5000583;28;19910;-80
2020/12/18 02:50:24;;;;;;;;;;;5.80;99.90;;;;;;4982380;28;19949;-80
2020/12/18 02:52:50;;;;;;;;;;;5.80;99.90;;;;;;4980361;28;19949;-80
2020/12/18 02:55:15;;;;;;;;;;;5.70;99.90;;;;;;4991343;28;20449;-80
2020/12/18 02:57:41;;;;;;;;;;;5.70;99.90;;;;;;4993233;28;19937;-81
2020/12/18 03:00:06;;;;;;;;;;;5.70;99.90;;;;;;4980647;28;19918;-80
2020/12/18 03:02:31;;;;;;;;;;;5.70;99.90;;;;;;4982007;28;19924;-80
2020/12/18 03:04:57;;;;;;;;;;;5.70;99.90;;;;;;4991324;28;19918;-80
2020/12/18 03:07:22;;;;;;;;;;;5.60;99.90;;;;;;4977596;28;19918;-80
2020/12/18 03:09:48;;;;;;;;;;;5.60;99.90;;;;;;4981580;28;19968;-80
2020/12/18 03:12:13;;;;;;;;;;;5.60;99.90;;;;;;4980301;28;20362;-80
2020/12/18 03:14:39;;;;;;;;;;;5.60;99.90;;;;;;4977553;28;20298;-80
2020/12/18 03:17:04;;;;;;;;;;;5.60;99.90;;;;;;4985174;28;19957;-81
2020/12/18 03:19:30;;;;;;;;;;;5.60;99.90;;;;;;4983888;28;19918;-80
2020/12/18 03:21:55;;;;;;;;;;;5.70;99.90;;;;;;4986581;28;19939;-80
2020/12/18 03:24:21;;;;;;;;;;;5.70;99.90;;;;;;4981966;28;19914;-80
2020/12/18 03:26:46;;;;;;;;;;;5.70;99.90;;;;;;4997315;28;19910;-81
2020/12/18 03:29:12;;;;;;;;;;;5.70;99.90;;;;;;4980667;28;19933;-80
2020/12/18 03:31:37;;;;;;;;;;;5.70;99.90;;;;;;4985436;28;19950;-80
2020/12/18 03:34:03;;;;;;;;;;;5.70;99.90;;;;;;4987375;28;19922;-81
2020/12/18 03:36:29;;;;;;;;;;;5.60;99.90;;;;;;4980125;28;19960;-80
2020/12/18 03:38:54;;;;;;;;;;;5.60;99.90;;;;;;4993805;28;19953;-81
2020/12/18 03:41:20;;;;;;;;;;;5.60;99.90;;;;;;4980521;28;19914;-80
2020/12/18 03:43:45;;;;;;;;;;;5.60;99.90;;;;;;4991373;28;20002;-80
2020/12/18 03:46:12;;;;;;;;;;;5.60;99.90;;;;;;4982237;28;19914;-80
2020/12/18 03:48:37;;;;;;;;;;;5.70;99.90;;;;;;4977823;28;20663;-80
2020/12/18 03:51:02;;;;;;;;;;;5.70;99.90;;;;;;4978590;28;19958;-81
2020/12/18 03:53:28;;;;;;;;;;;5.70;99.90;;;;;;4978554;28;19914;-80
2020/12/18 03:55:53;;;;;;;;;;;5.70;99.90;;;;;;4987291;28;19913;-80
2020/12/18 03:58:19;;;;;;;;;;;5.70;99.90;;;;;;4996466;28;19921;-80
2020/12/18 04:00:44;;;;;;;;;;;5.70;99.90;;;;;;4979321;28;19921;-80
2020/12/18 04:03:10;;;;;;;;;;;5.70;99.90;;;;;;4985929;28;19969;-80
2020/12/18 04:05:35;;;;;;;;;;;5.70;99.90;;;;;;4980973;28;20381;-80
2020/12/18 04:08:01;;;;;;;;;;;5.70;99.90;;;;;;4979537;28;20005;-80
2020/12/18 04:10:26;;;;;;;;;;;5.80;99.90;;;;;;4978466;28;19910;-80
2020/12/18 04:12:52;;;;;;;;;;;5.80;99.90;;;;;;4999319;28;20167;-80
2020/12/18 04:15:17;;;;;;;;;;;5.80;99.90;;;;;;4983922;28;19918;-81
2020/12/18 04:17:44;;;;;;;;;;;5.80;99.90;;;;;;4998056;28;19945;-81
2020/12/18 04:20:09;;;;;;;;;;;5.90;99.90;;;;;;4984370;28;19921;-80
2020/12/18 04:22:35;;;;;;;;;;;5.90;99.90;;;;;;4998941;22;19948;-77
2020/12/18 04:25:00;;;;;;;;;;;5.90;99.90;;;;;;4977538;28;20374;-77
2020/12/18 04:27:26;;;;;;;;;;;5.90;99.90;;;;;;4981021;28;20352;-77
2020/12/18 04:29:51;;;;;;;;;;;5.80;99.90;;;;;;4985142;28;19914;-78
2020/12/18 04:32:16;;;;;;;;;;;5.80;99.90;;;;;;4984937;28;19914;-78
2020/12/18 04:34:42;;;;;;;;;;;5.70;99.90;;;;;;4963161;28;20344;-76
2020/12/18 04:37:07;;;;;;;;;;;5.70;99.90;;;;;;4989331;28;19921;-78
2020/12/18 04:39:33;;;;;;;;;;;5.70;99.90;;;;;;4974073;28;19918;-78
2020/12/18 04:41:58;;;;;;;;;;;5.60;99.90;;;;;;4977894;28;20390;-78
2020/12/18 04:44:24;;;;;;;;;;;5.60;99.90;;;;;;4978405;28;19992;-78
2020/12/18 04:46:50;;;;;;;;;;;5.60;99.90;;;;;;4974345;28;19918;-78
2020/12/18 04:49:16;;;;;;;;;;;5.50;99.90;;;;;;4975180;28;19920;-79
2020/12/18 04:51:43;;;;;;;;;;;5.50;99.90;;;;;;4973903;28;20300;-78
2020/12/18 04:54:11;;;;;;;;;;;5.50;99.90;;;;;;4976501;28;19921;-77
2020/12/18 04:56:38;;;;;;;;;;;5.40;99.90;;;;;;4974526;28;19914;-78
2020/12/18 04:59:04;;;;;;;;;;;5.40;99.90;;;;;;4991256;28;19953;-78
2020/12/18 05:01:30;;;;;;;;;;;5.30;99.90;;;;;;4976855;28;20008;-78
2020/12/18 05:03:57;;;;;;;;;;;5.30;99.90;;;;;;4957043;28;19968;-77
2020/12/18 05:06:22;;;;;;;;;;;5.30;99.90;;;;;;4973456;28;19930;-77
2020/12/18 05:08:48;;;;;;;;;;;5.30;99.90;;;;;;4987897;28;20318;-78
2020/12/18 05:11:16;;;;;;;;;;;5.20;99.90;;;;;;4973721;28;19965;-78
2020/12/18 05:13:43;;;;;;;;;;;5.20;99.90;;;;;;4976332;28;20009;-77
2020/12/18 05:16:08;;;;;;;;;;;5.10;99.90;;;;;;4973307;28;19910;-78
2020/12/18 05:18:34;;;;;;;;;;;5.10;99.90;;;;;;4971083;28;19918;-78
2020/12/18 05:20:59;;;;;;;;;;;5.10;99.90;;;;;;4975831;28;20389;-78
2020/12/18 05:23:25;;;;;;;;;;;5.10;99.90;;;;;;4987406;28;19918;-77
2020/12/18 05:25:50;;;;;;;;;;;5.10;99.90;;;;;;4982353;28;19914;-77
2020/12/18 05:28:19;;;;;;;;;;;5.10;99.90;;;;;;4991579;28;19910;-75
2020/12/18 05:30:53;;;;;;;;;;;5.00;99.90;;;;;;4977144;28;19915;-78
2020/12/18 05:33:18;;;;;;;;;;;5.00;99.90;;;;;;4982081;28;20016;-77
2020/12/18 05:35:44;;;;;;;;;;;5.00;99.90;;;;;;4990076;28;20041;-78
2020/12/18 05:38:10;;;;;;;;;;;5.00;99.90;;;;;;4985528;28;19921;-78
2020/12/18 05:40:35;;;;;;;;;;;5.00;99.90;;;;;;4996708;28;19913;-78
2020/12/18 05:43:14;;;;;;;;;;;5.00;99.90;;;;;;4978177;28;20338;-78
2020/12/18 05:45:39;;;;;;;;;;;5.00;99.90;;;;;;4958506;28;19925;-78
2020/12/18 05:48:06;;;;;;;;;;;5.00;99.90;;;;;;4976870;28;19914;-77
2020/12/18 05:50:32;;;;;;;;;;;5.00;99.90;;;;;;4975487;28;19922;-78
2020/12/18 05:52:59;;;;;;;;;;;5.00;99.90;;;;;;4990530;28;19918;-78
2020/12/18 05:55:25;;;;;;;;;;;5.00;99.90;;;;;;4976187;28;19910;-78
2020/12/18 05:57:52;;;;;;;;;;;4.90;99.90;;;;;;4977783;28;19916;-78
2020/12/18 06:00:18;;;;;;;;;;;4.90;99.90;;;;;;4977402;28;20509;-78
2020/12/18 06:02:46;;;;;;;;;;;4.90;99.90;;;;;;4990138;28;20005;-78
2020/12/18 06:05:14;;;;;;;;;;;4.90;99.90;;;;;;4987458;28;19917;-78
2020/12/18 06:07:40;;;;;;;;;;;4.90;99.90;;;;;;4973574;28;19918;-78
2020/12/18 06:10:06;;;;;;;;;;;4.90;99.90;;;;;;4977158;28;19933;-78
2020/12/18 06:12:31;;;;;;;;;;;4.90;99.90;;;;;;4991409;28;19914;-78
2020/12/18 06:14:56;;;;;;;;;;;4.90;99.90;;;;;;4982510;28;19921;-78
2020/12/18 06:17:28;;;;;;;;;;;4.80;99.90;;;;;;4975930;28;19911;-77
2020/12/18 06:19:57;;;;;;;;;;;4.80;99.90;;;;;;4981028;28;20020;-77
2020/12/18 06:22:23;;;;;;;;;;;4.80;99.90;;;;;;4964316;28;19976;-78
2020/12/18 06:24:48;;;;;;;;;;;4.80;99.90;;;;;;4984530;28;20396;-79
2020/12/18 06:27:18;;;;;;;;;;;4.80;99.90;;;;;;4958733;28;19910;-78
2020/12/18 06:29:44;;;;;;;;;;;4.80;99.90;;;;;;4982920;28;20293;-78
2020/12/18 06:32:20;;;;;;;;;;;4.80;99.90;;;;;;4976857;28;20391;-79
2020/12/18 06:34:45;;;;;;;;;;;4.80;99.90;;;;;;4990074;28;19968;-78
2020/12/18 06:37:24;;;;;;;;;;;4.80;99.90;;;;;;4976368;28;19926;-78
2020/12/18 06:39:50;;;;;;;;;;;4.80;99.90;;;;;;4977324;28;19945;-79
2020/12/18 06:42:23;;;;;;;;;;;4.80;99.90;;;;;;4975763;28;20685;-79
2020/12/18 06:44:49;;;;;;;;;;;4.80;99.90;;;;;;4976089;28;19920;-77
2020/12/18 06:47:16;;;;;;;;;;;4.80;99.90;;;;;;4976779;28;20375;-79
2020/12/18 06:50:00;;;;;;;;;;;4.80;99.90;;;;;;4976567;28;19910;-79
2020/12/18 06:52:42;;;;;;;;;;;4.80;99.90;;;;;;4976456;28;20457;-78
2020/12/18 06:55:09;;;;;;;;;;;4.70;99.90;;;;;;4975102;28;19915;-79
2020/12/18 06:57:35;;;;;;;;;;;4.70;99.90;;;;;;4975795;28;19961;-78
2020/12/18 07:00:39;;;;;;;;;;;4.70;99.90;;;;;;4959586;28;19946;-78
2020/12/18 07:03:04;;;;;;;;;;;4.70;99.90;;;;;;4935132;29;19967;-78
2020/12/18 07:05:33;;;;;;;;;;;4.70;99.90;;;;;;4935430;29;19915;-77
2020/12/18 07:08:00;;;;;;;;;;;4.70;99.90;;;;;;4949790;28;20094;-78
2020/12/18 07:10:30;;;;;;;;;;;4.70;99.90;;;;;;4972848;28;19914;-78
2020/12/18 07:12:57;;;;;;;;;;;4.80;99.90;;;;;;4974364;28;20343;-82
2020/12/18 07:15:26;;;;;;;;;;;4.90;99.90;;;;;;4971272;28;19944;-79
2020/12/18 07:17:52;;;;;;;;;;;5.00;99.90;;;;;;4969484;28;19996;-80
2020/12/18 07:20:17;;;;;;;;;;;5.10;99.90;;;;;;4986313;28;19918;-80
2020/12/18 07:22:43;;;;;;;;;;;5.10;99.90;;;;;;4980627;28;19925;-79
2020/12/18 07:25:12;;;;;;;;;;;5.20;99.90;;;;;;4967025;28;19925;-78
2020/12/18 07:27:38;;;;;;;;;;;5.30;99.90;;;;;;4976336;28;20298;-79
2020/12/18 07:30:10;;;;;;;;;;;5.30;99.90;;;;;;4977039;28;19914;-80
2020/12/18 07:32:36;;;;;;;;;;;5.30;99.90;;;;;;4975809;28;19914;-81
2020/12/18 07:35:08;;;;;;;;;;;5.30;99.90;;;;;;4990228;28;19921;-80
2020/12/18 07:37:34;;;;;;;;;;;5.40;99.90;;;;;;4990248;28;20530;-78
2020/12/18 07:40:00;;;;;;;;;;;5.40;99.90;;;;;;4994983;28;19921;-79
2020/12/18 07:42:25;;;;;;;;;;;5.40;99.90;;;;;;4961166;28;20307;-78
2020/12/18 07:45:04;;;;;;;;;;;5.40;99.90;;;;;;4975945;28;19933;-80
2020/12/18 07:47:32;;;;;;;;;;;5.50;99.90;;;;;;4976037;28;19918;-79
2020/12/18 07:49:58;;;;;;;;;;;5.60;99.90;;;;;;4977678;28;19911;-79
2020/12/18 07:52:24;;;;;;;;;;;5.70;99.90;;;;;;4977768;28;19918;-79
2020/12/18 07:54:56;;;;;;;;;;;5.80;99.90;;;;;;4975925;28;19910;-77
2020/12/18 07:57:22;;;;;;;;;;;5.90;99.90;;;;;;4982796;28;20382;-79
2020/12/18 07:59:47;;;;;;;;;;;6.00;99.90;;;;;;4980106;28;19921;-77
2020/12/18 08:02:39;;;;;;;;;;;6.20;99.90;;;;;;4975321;28;19914;-78
2020/12/18 08:05:05;;;;;;;;;;;6.30;99.90;;;;;;4973526;28;19964;-78
2020/12/18 08:07:31;;;;;;;;;;;6.50;99.90;;;;;;4990721;28;19914;-77
2020/12/18 08:09:57;;;;;;;;;;;6.60;99.90;;;;;;4976699;28;20342;-78
2020/12/18 08:12:23;;;;;;;;;;;6.80;99.90;;;;;;4961123;28;20290;-80
2020/12/18 08:14:48;;;;;;;;;;;7.00;99.90;;;;;;4957889;28;19918;-80
2020/12/18 08:17:23;;;;;;;;;;;7.10;99.90;;;;;;4973137;28;19917;-78
2020/12/18 08:19:52;;;;;;;;;;;7.30;99.90;;;;;;4981683;28;19957;-81
2020/12/18 08:22:19;;;;;;;;;;;7.60;99.90;;;;;;4988781;28;19924;-80
2020/12/18 08:24:46;;;;;;;;;;;8.10;99.90;;;;;;4985430;28;20290;-78
2020/12/18 08:27:17;;;;;;;;;;;8.70;99.90;;;;;;4991358;28;19910;-79
2020/12/18 08:29:44;;;;;;;;;;;9.20;99.90;;;;;;4970250;28;19940;-80
2020/12/18 08:32:12;;;;;;;;;;;9.40;99.90;;;;;;4992147;28;20313;-78
2020/12/18 08:34:37;;;;;;;;;;;9.50;99.90;;;;;;4970280;28;19914;-78
2020/12/18 08:37:03;;;;;;;;;;;9.60;99.90;;;;;;4984752;28;19968;-77
2020/12/18 08:39:30;;;;;;;;;;;9.60;99.90;;;;;;4976030;28;19921;-79
2020/12/18 08:41:55;;;;;;;;;;;9.70;99.90;;;;;;4975045;28;19926;-79
2020/12/18 08:44:41;;;;;;;;;;;9.70;99.90;;;;;;4973702;28;19916;-79
2020/12/18 08:47:23;;;;;;;;;;;9.70;99.90;;;;;;4975150;28;19925;-79
2020/12/18 08:49:50;;;;;;;;;;;9.70;99.90;;;;;;4976103;28;19921;-78
2020/12/18 08:52:21;;;;;;;;;;;9.70;99.90;;;;;;4975238;28;19921;-78
2020/12/18 08:54:46;;;;;;;;;;;9.60;99.90;;;;;;4958165;28;20009;-79
2020/12/18 08:57:13;;;;;;;;;;;9.60;99.90;;;;;;4975089;28;20008;-77
2020/12/18 08:59:40;;;;;;;;;;;9.70;99.90;;;;;;4973365;28;19937;-79
2020/12/18 09:02:14;;;;;;;;;;;9.70;99.90;;;;;;4979894;28;20012;-78
2020/12/18 09:04:40;;;;;;;;;;;9.70;99.90;;;;;;4963081;28;19966;-79
2020/12/18 09:07:05;;;;;;;;;;;9.60;99.90;;;;;;4980507;28;19914;-78
2020/12/18 09:09:31;;;;;;;;;;;9.60;99.90;;;;;;4985457;28;20335;-78
2020/12/18 09:12:12;;;;;;;;;;;9.50;99.90;;;;;;4978920;28;19954;-79
2020/12/18 09:14:38;;;;;;;;;;;9.40;99.90;;;;;;4959287;28;20442;-78
2020/12/18 09:17:03;;;;;;;;;;;9.30;99.90;;;;;;4963028;28;19923;-76
2020/12/18 09:19:29;;;;;;;;;;;9.30;99.90;;;;;;4976762;28;19914;-78
2020/12/18 09:22:03;;;;;;;;;;;9.20;99.90;;;;;;4979415;28;20386;-79
2020/12/18 09:24:29;;;;;;;;;;;9.10;99.90;;;;;;4978158;28;20281;-79
2020/12/18 09:27:07;;;;;;;;;;;9.10;99.90;;;;;;4991320;28;19966;-76
2020/12/18 09:29:33;;;;;;;;;;;9.10;99.90;;;;;;4988126;28;19952;-78
2020/12/18 09:31:58;;;;;;;;;;;9.00;99.90;;;;;;4987122;28;20289;-77
2020/12/18 09:34:24;;;;;;;;;;;9.00;99.90;;;;;;4985087;28;19914;-79
2020/12/18 09:36:49;;;;;;;;;;;9.00;99.90;;;;;;4971917;28;23646;-79
2020/12/18 09:39:14;;;;;;;;;;;9.00;99.90;;;;;;4988780;28;19918;-78
2020/12/18 09:41:40;;;;;;;;;;;9.00;99.90;;;;;;4969997;28;19921;-81
2020/12/18 09:44:05;;;;;;;;;;;9.00;99.90;;;;;;4968737;28;19914;-78
2020/12/18 09:46:31;;;;;;;;;;;9.00;99.90;;;;;;4974769;28;19965;-77
2020/12/18 09:48:56;;;;;;;;;;;9.00;99.90;;;;;;4978818;28;19914;-77
2020/12/18 09:51:22;;;;;;;;;;;9.00;99.90;;;;;;4977883;28;20420;-76
2020/12/18 09:53:48;;;;;;;;;;;9.00;99.90;;;;;;4987813;28;19921;-78
2020/12/18 09:56:14;;;;;;;;;;;9.00;99.90;;;;;;4984350;28;20385;-77
2020/12/18 09:58:40;;;;;;;;;;;9.10;99.90;;;;;;4975145;28;19917;-79
2020/12/18 10:01:06;;;;;;;;;;;9.20;99.90;;;;;;4975381;28;19913;-77
2020/12/18 10:03:31;;;;;;;;;;;9.20;99.90;;;;;;4980487;28;20040;-79
2020/12/18 10:05:56;;;;;;;;;;;9.30;99.90;;;;;;4986206;28;19953;-78
2020/12/18 10:08:22;;;;;;;;;;;9.40;99.90;;;;;;4962424;28;19977;-77
2020/12/18 10:10:47;;;;;;;;;;;9.40;99.90;;;;;;4985700;28;19925;-79
2020/12/18 10:13:14;;;;;;;;;;;9.40;99.90;;;;;;4994253;28;20321;-78
2020/12/18 10:15:39;;;;;;;;;;;9.40;99.90;;;;;;4976201;28;20362;-80
2020/12/18 10:18:05;;;;;;;;;;;9.40;99.90;;;;;;4975812;28;19921;-78
2020/12/18 10:20:30;;;;;;;;;;;9.40;99.90;;;;;;4972355;28;20378;-78
2020/12/18 10:22:56;;;;;;;;;;;9.50;99.90;;;;;;5004976;23;19932;-82
2020/12/18 10:25:21;;;;;;;;;;;9.50;99.90;;;;;;5019743;28;19918;-81
2020/12/18 10:27:47;;;;;;;;;;;9.50;99.90;;;;;;5002916;28;20298;-81
2020/12/18 10:30:13;;;;;;;;;;;9.50;99.90;;;;;;5004192;28;19913;-81
2020/12/18 10:32:38;;;;;;;;;;;9.50;99.90;;;;;;5027927;28;19945;-81
2020/12/18 10:35:05;;;;;;;;;;;9.50;99.90;;;;;;4998460;28;19921;-81
2020/12/18 10:37:30;;;;;;;;;;;9.60;99.90;;;;;;4999461;28;19972;-81
2020/12/18 10:39:57;;;;;;;;;;;9.60;99.90;;;;;;5006636;28;19922;-81
2020/12/18 10:42:23;;;;;;;;;;;9.60;99.90;;;;;;5001836;28;19914;-83
2020/12/18 10:44:48;;;;;;;;;;;9.60;99.90;;;;;;5006363;28;20416;-80
2020/12/18 10:47:14;;;;;;;;;;;9.60;99.90;;;;;;4995324;28;19921;-80
2020/12/18 10:49:39;;;;;;;;;;;9.70;99.90;;;;;;5002304;28;20012;-81
2020/12/18 10:52:05;;;;;;;;;;;9.80;99.90;;;;;;5000273;28;19914;-84
2020/12/18 10:54:31;;;;;;;;;;;9.90;99.90;;;;;;4999472;28;19922;-83
2020/12/18 10:56:56;;;;;;;;;;;9.90;99.90;;;;;;5000406;28;19925;-83
2020/12/18 10:59:23;;;;;;;;;;;10.00;99.90;;;;;;5001790;28;19917;-83
2020/12/18 11:01:52;;;;;;;;;;;10.10;99.90;;;;;;5000719;28;20446;-83
2020/12/18 11:04:17;;;;;;;;;;;10.20;99.90;;;;;;5000177;28;19921;-83
2020/12/18 11:06:43;;;;;;;;;;;10.30;99.90;;;;;;5001617;28;19914;-85
2020/12/18 11:09:08;;;;;;;;;;;10.40;99.90;;;;;;4999945;28;19913;-83
2020/12/18 11:11:34;;;;;;;;;;;10.50;99.90;;;;;;5000532;28;19949;-83
2020/12/18 11:13:59;;;;;;;;;;;10.60;99.90;;;;;;5000005;28;19913;-84
2020/12/18 11:16:25;;;;;;;;;;;10.70;99.90;;;;;;5000667;28;19941;-83
2020/12/18 11:18:50;;;;;;;;;;;10.80;99.90;;;;;;4999062;28;20377;-84
2020/12/18 11:21:16;;;;;;;;;;;10.80;99.90;;;;;;5015202;28;19921;-80
2020/12/18 11:23:41;;;;;;;;;;;10.90;99.90;;;;;;5015528;28;19953;-81
2020/12/18 11:26:07;;;;;;;;;;;11.00;99.90;;;;;;4999421;28;19924;-81
2020/12/18 11:28:33;;;;;;;;;;;11.40;99.90;;;;;;4999831;28;19926;-81
2020/12/18 11:31:01;;;;;;;;;;;12.40;99.90;;;;;;4980179;28;19913;-81
2020/12/18 11:33:27;;;;;;;;;;;13.80;99.90;;;;;;4992994;28;19913;-81
2020/12/18 11:35:53;;;;;;;;;;;15.20;99.90;;;;;;4990013;28;20382;-82
2020/12/18 11:38:18;;;;;;;;;;;16.40;99.90;;;;;;4996367;28;19920;-82
2020/12/18 11:40:44;;;;;;;;;;;17.30;99.90;;;;;;5004571;28;19937;-82
2020/12/18 11:43:09;;;;;;;;;;;18.10;99.90;;;;;;4997551;28;19914;-82
2020/12/18 11:45:34;;;;;;;;;;;18.70;99.90;;;;;;4996896;28;19972;-81
2020/12/18 11:48:00;;;;;;;;;;;19.20;99.90;;;;;;4996833;28;19921;-82
2020/12/18 11:50:28;;;;;;;;;;;19.70;99.90;;;;;;5005191;28;20267;-83
2020/12/18 11:52:57;;;;;;;;;;;20.10;99.90;;;;;;5016192;28;20361;-82
2020/12/18 11:55:22;;;;;;;;;;;20.40;99.90;;;;;;5005965;28;19909;-83
2020/12/18 11:57:48;;;;;;;;;;;20.90;99.90;;;;;;4995417;28;19917;-82
2020/12/18 12:00:14;;;;;;;;;;;21.10;99.90;;;;;;5000032;28;19925;-82
2020/12/18 12:02:39;;;;;;;;;;;21.40;99.90;;;;;;5000160;28;19914;-82
2020/12/18 12:05:05;;;;;;;;;;;21.50;99.90;;;;;;4998688;28;19917;-81
2020/12/18 12:07:30;;;;;;;;;;;21.50;99.90;;;;;;4994636;28;20409;-81
2020/12/18 12:09:57;;;;;;;;;;;21.70;99.90;;;;;;5000171;28;19941;-82
2020/12/18 12:12:22;;;;;;;;;;;21.90;99.90;;;;;;4999837;28;19977;-82
2020/12/18 12:14:48;;;;;;;;;;;22.10;99.90;;;;;;5007339;28;20275;-82
2020/12/18 12:17:13;;;;;;;;;;;22.20;99.90;;;;;;4998506;28;19936;-82
2020/12/18 12:19:39;;;;;;;;;;;22.30;99.90;;;;;;4998664;28;19918;-81
2020/12/18 12:22:04;;;;;;;;;;;22.50;99.90;;;;;;4998819;28;20057;-82
2020/12/18 12:24:30;;;;;;;;;;;22.60;99.90;;;;;;4998977;28;19932;-82
2020/12/18 12:26:55;;;;;;;;;;;22.60;99.90;;;;;;4986458;28;19921;-82
2020/12/18 12:29:20;;;;;;;;;;;22.50;99.90;;;;;;4998484;28;20396;-82
2020/12/18 12:31:46;;;;;;;;;;;22.20;99.90;;;;;;4988044;28;19949;-83
2020/12/18 12:34:11;;;;;;;;;;;21.90;99.90;;;;;;4998906;28;20382;-82
2020/12/18 12:36:37;;;;;;;;;;;21.60;99.90;;;;;;4997510;28;19977;-83
2020/12/18 12:39:03;;;;;;;;;;;21.40;99.90;;;;;;4982213;28;19914;-82
2020/12/18 12:41:28;;;;;;;;;;;21.30;99.90;;;;;;4986164;28;19913;-82
2020/12/18 12:43:53;;;;;;;;;;;21.20;99.90;;;;;;5010396;28;19921;-82
2020/12/18 12:46:23;;;;;;;;;;;21.10;99.90;;;;;;4998229;28;19945;-82
2020/12/18 12:48:48;;;;;;;;;;;21.00;99.90;;;;;;4993966;28;20387;-82
2020/12/18 12:51:15;;;;;;;;;;;20.90;99.90;;;;;;4979037;28;19936;-82
2020/12/18 12:53:40;;;;;;;;;;;20.90;99.90;;;;;;4992649;28;19922;-82
2020/12/18 12:56:06;;;;;;;;;;;20.80;99.90;;;;;;5006089;28;19917;-82
2020/12/18 12:58:31;;;;;;;;;;;20.70;99.90;;;;;;5006026;28;19913;-82
2020/12/18 13:00:57;;;;;;;;;;;20.60;99.90;;;;;;5003744;28;19933;-82
2020/12/18 13:03:22;;;;;;;;;;;20.60;99.90;;;;;;4987131;28;19913;-82
2020/12/18 13:05:47;;;;;;;;;;;20.50;99.90;;;;;;4998191;28;19969;-82
2020/12/18 13:08:13;;;;;;;;;;;20.30;99.90;;;;;;4975108;28;19913;-82
2020/12/18 13:10:39;;;;;;;;;;;20.20;99.90;;;;;;4998011;28;19925;-82
2020/12/18 13:13:05;;;;;;;;;;;20.10;99.90;;;;;;4989129;28;20267;-82
2020/12/18 13:15:30;;;;;;;;;;;20.00;99.90;;;;;;4980712;28;20040;-82
2020/12/18 13:17:56;;;;;;;;;;;19.90;99.90;;;;;;4998775;28;20366;-82
2020/12/18 13:20:22;;;;;;;;;;;19.70;99.90;;;;;;5003416;28;19917;-82
2020/12/18 13:22:47;;;;;;;;;;;19.50;99.90;;;;;;4998274;28;19953;-83
2020/12/18 13:25:13;;;;;;;;;;;19.30;99.90;;;;;;5004306;28;19917;-82
2020/12/18 13:27:38;;;;;;;;;;;19.30;99.90;;;;;;4995782;28;19967;-83
2020/12/18 13:30:04;;;;;;;;;;;19.10;99.90;;;;;;4990442;28;19914;-82
2020/12/18 13:32:29;;;;;;;;;;;19.10;99.90;;;;;;4988272;28;19918;-82
2020/12/18 13:34:55;;;;;;;;;;;19.10;99.90;;;;;;5007361;28;19920;-82
2020/12/18 13:37:21;;;;;;;;;;;18.90;99.90;;;;;;4998870;28;19913;-82
2020/12/18 13:39:46;;;;;;;;;;;18.70;99.90;;;;;;5001545;28;19945;-82
2020/12/18 13:42:17;;;;;;;;;;;18.50;99.90;;;;;;4998430;28;20301;-82
2020/12/18 13:44:43;;;;;;;;;;;18.40;99.90;;;;;;4996515;28;19921;-82
2020/12/18 13:47:14;;;;;;;;;;;18.30;99.90;;;;;;4985741;28;19918;-82
2020/12/18 13:49:41;;;;;;;;;;;18.20;99.90;;;;;;4984432;28;19922;-82
2020/12/18 13:52:07;;;;;;;;;;;18.10;99.90;;;;;;4997687;28;19918;-82
2020/12/18 13:54:33;;;;;;;;;;;18.00;99.90;;;;;;4997164;28;19914;-82
2020/12/18 13:56:59;;;;;;;;;;;17.90;99.90;;;;;;4998478;28;19914;-82
2020/12/18 13:59:24;;;;;;;;;;;17.90;99.90;;;;;;5003968;28;20373;-82
2020/12/18 14:01:50;;;;;;;;;;;17.80;99.90;;;;;;5003686;28;19917;-82
2020/12/18 14:04:15;;;;;;;;;;;17.70;99.90;;;;;;4998901;28;19909;-82
2020/12/18 14:06:41;;;;;;;;;;;17.70;99.90;;;;;;5000901;28;19909;-81
2020/12/18 14:09:06;;;;;;;;;;;17.60;99.90;;;;;;5016968;28;19999;-82
2020/12/18 14:11:35;;;;;;;;;;;17.60;99.90;;;;;;5003352;28;19917;-81
2020/12/18 14:14:01;;;;;;;;;;;17.40;99.90;;;;;;5001508;28;19921;-82
2020/12/18 14:16:26;;;;;;;;;;;17.30;99.90;;;;;;5001793;28;19914;-82
2020/12/18 14:18:52;;;;;;;;;;;17.10;99.90;;;;;;5002739;28;19941;-82
2020/12/18 14:21:17;;;;;;;;;;;17.10;99.90;;;;;;5003925;28;20301;-82